createdAt,value
2022-08-11T00:02:06.986Z,2.05
2022-08-11T00:04:48.918Z,2.30
2022-08-11T00:09:51.186Z,2.05
2022-08-11T00:12:21.895Z,1.77
2022-08-11T00:15:02.185Z,1.95
2022-08-11T00:17:36.068Z,1.90
2022-08-11T00:20:16.284Z,1.80
2022-08-11T00:22:50.362Z,2.17
2022-08-11T00:25:22.981Z,2.05
2022-08-11T00:27:53.273Z,2.07
2022-08-11T00:30:23.777Z,1.90
2022-08-11T00:32:59.384Z,2.13
2022-08-11T00:35:51.414Z,2.03
2022-08-11T00:38:28.995Z,2.20
2022-08-11T00:41:07.710Z,2.22
2022-08-11T00:44:20.826Z,2.50
2022-08-11T00:47:03.062Z,2.10
2022-08-11T00:49:50.311Z,2.15
2022-08-11T00:52:37.534Z,2.15
2022-08-11T00:55:43.096Z,2.20
2022-08-11T00:58:56.368Z,2.00
2022-08-11T01:01:45.864Z,1.52
2022-08-11T01:04:55.726Z,2.40
2022-08-11T01:08:03.486Z,2.20
2022-08-11T01:10:52.515Z,2.25
2022-08-11T01:13:54.253Z,1.75
2022-08-11T01:16:56.053Z,1.95
2022-08-11T01:20:44.970Z,2.10
2022-08-11T01:23:24.657Z,2.30
2022-08-11T01:26:48.756Z,2.25
2022-08-11T01:29:49.157Z,2.23
2022-08-11T01:33:06.710Z,1.95
2022-08-11T01:36:11.208Z,2.25
2022-08-11T01:39:18.311Z,2.17
2022-08-11T01:42:40.472Z,2.00
2022-08-11T01:45:24.058Z,2.00
2022-08-11T01:48:12.193Z,2.38
2022-08-11T01:51:06.663Z,1.95
2022-08-11T01:53:49.684Z,2.28
2022-08-11T01:56:35.290Z,2.25
2022-08-11T01:59:15.461Z,2.22
2022-08-11T02:02:09.325Z,2.20
2022-08-11T02:04:44.952Z,2.00
2022-08-11T02:07:27.548Z,2.17
2022-08-11T02:10:35.358Z,2.45
2022-08-11T02:13:23.504Z,2.28
2022-08-11T02:16:20.537Z,2.80
2022-08-11T02:19:08.709Z,2.42
2022-08-11T02:22:01.569Z,3.33
2022-08-11T02:24:44.688Z,2.40
2022-08-11T02:27:23.982Z,2.70
2022-08-11T02:30:07.568Z,3.05
2022-08-11T02:32:57.289Z,2.72
2022-08-11T02:35:41.484Z,2.42
2022-08-11T02:38:28.958Z,2.65
2022-08-11T02:41:29.797Z,2.85
2022-08-11T02:44:14.086Z,2.83
2022-08-11T02:47:00.388Z,2.50
2022-08-11T02:49:59.955Z,2.75
2022-08-11T02:52:45.510Z,2.22
2022-08-11T02:55:56.171Z,3.17
2022-08-11T02:58:26.893Z,4.10
2022-08-11T03:01:08.861Z,4.25
2022-08-11T03:03:47.681Z,2.72
2022-08-11T03:06:30.964Z,2.95
2022-08-11T03:09:08.506Z,3.50
2022-08-11T03:12:06.226Z,2.22
2022-08-11T03:15:03.639Z,2.75
2022-08-11T03:17:40.091Z,2.45
2022-08-11T03:20:33.390Z,2.63
2022-08-11T03:23:19.635Z,2.78
2022-08-11T03:25:58.772Z,3.45
2022-08-11T03:28:37.650Z,3.50
2022-08-11T03:31:27.295Z,3.75
2022-08-11T03:34:06.624Z,3.17
2022-08-11T03:37:17.101Z,4.68
2022-08-11T03:40:01.366Z,3.58
2022-08-11T03:42:42.610Z,4.22
2022-08-11T03:45:25.035Z,5.00
2022-08-11T03:48:17.361Z,3.20
2022-08-11T03:51:08.272Z,5.00
2022-08-11T03:53:59.100Z,4.28
2022-08-11T03:57:14.136Z,4.10
2022-08-11T04:00:31.685Z,4.07
2022-08-11T04:03:40.563Z,3.30
2022-08-11T04:06:53.378Z,3.72
2022-08-11T04:10:01.540Z,2.80
2022-08-11T04:13:02.906Z,3.30
2022-08-11T04:16:11.806Z,2.75
2022-08-11T04:19:24.953Z,2.97
2022-08-11T04:22:23.851Z,2.80
2022-08-11T04:25:29.313Z,3.90
2022-08-11T04:28:29.283Z,2.92
2022-08-11T04:31:13.189Z,4.03
2022-08-11T04:34:39.025Z,3.33
2022-08-11T04:37:44.466Z,3.30
2022-08-11T04:40:59.001Z,3.53
2022-08-11T04:44:05.768Z,2.80
2022-08-11T04:47:10.288Z,2.85
2022-08-11T04:50:30.911Z,3.30
2022-08-11T04:53:37.878Z,3.20
2022-08-11T04:56:32.632Z,2.65
2022-08-11T05:00:11.579Z,2.60
2022-08-11T05:03:11.569Z,2.03
2022-08-11T05:06:08.804Z,1.90
2022-08-11T05:09:07.108Z,3.03
2022-08-11T05:12:06.326Z,2.35
2022-08-11T05:14:51.761Z,2.00
2022-08-11T05:17:48.286Z,2.60
2022-08-11T05:20:31.042Z,2.33
2022-08-11T05:23:20.297Z,2.33
2022-08-11T05:26:48.023Z,2.47
2022-08-11T05:29:21.235Z,2.10
2022-08-11T05:32:11.236Z,3.35
2022-08-11T05:34:55.033Z,2.03
2022-08-11T05:40:15.461Z,1.63
2022-08-11T05:43:10.187Z,2.05
2022-08-11T05:46:03.770Z,2.08
2022-08-11T05:48:50.603Z,2.00
2022-08-11T05:51:33.875Z,2.15
2022-08-11T05:57:02.016Z,2.45
2022-08-11T05:59:36.155Z,2.43
2022-08-11T06:02:08.430Z,1.83
2022-08-11T06:04:39.456Z,2.35
2022-08-11T06:07:12.108Z,1.75
2022-08-11T06:09:51.789Z,2.20
2022-08-11T06:12:27.222Z,1.88
2022-08-11T06:15:04.478Z,2.15
2022-08-11T06:17:38.952Z,2.05
2022-08-11T06:20:13.507Z,1.95
2022-08-11T06:22:50.973Z,2.22
2022-08-11T06:25:24.569Z,1.95
2022-08-11T06:27:59.566Z,1.88
2022-08-11T06:30:44.479Z,2.10
2022-08-11T06:33:17.266Z,1.30
2022-08-11T06:36:00.834Z,1.80
2022-08-11T06:41:35.811Z,1.60
2022-08-11T06:44:19.427Z,1.43
2022-08-11T06:46:56.720Z,1.52
2022-08-11T06:49:50.220Z,1.83
2022-08-11T06:52:35.626Z,1.77
2022-08-11T06:55:57.589Z,1.65
2022-08-11T06:58:13.995Z,1.60
2022-08-11T07:00:52.361Z,1.50
2022-08-11T07:03:26.493Z,1.55
2022-08-11T07:06:04.130Z,2.15
2022-08-11T07:09:19.535Z,1.40
2022-08-11T07:12:17.982Z,1.30
2022-08-11T07:15:06.820Z,1.52
2022-08-11T07:17:42.892Z,1.48
2022-08-11T07:20:29.665Z,1.50
2022-08-11T07:23:16.679Z,1.50
2022-08-11T07:26:03.007Z,1.60
2022-08-11T07:28:47.152Z,1.50
2022-08-11T07:31:21.889Z,1.40
2022-08-11T07:34:07.267Z,1.65
2022-08-11T07:36:49.411Z,1.63
2022-08-11T07:39:24.303Z,2.05
2022-08-11T07:41:57.425Z,1.60
2022-08-11T07:44:34.689Z,1.73
2022-08-11T07:47:19.203Z,1.75
2022-08-11T07:50:05.986Z,1.88
2022-08-11T07:52:41.345Z,1.70
2022-08-11T07:55:17.247Z,1.75
2022-08-11T07:58:16.520Z,1.30
2022-08-11T08:01:10.167Z,1.70
2022-08-11T08:03:55.111Z,1.75
2022-08-11T08:06:38.775Z,1.88
2022-08-11T08:09:24.765Z,1.23
2022-08-11T08:12:07.951Z,1.70
2022-08-11T08:14:51.655Z,1.63
2022-08-11T08:17:35.151Z,1.40
2022-08-11T08:22:40.590Z,2.00
2022-08-11T08:25:18.501Z,1.33
2022-08-11T08:27:50.592Z,1.60
2022-08-11T08:30:33.540Z,1.58
2022-08-11T08:33:06.027Z,1.40
2022-08-11T08:35:54.311Z,1.47
2022-08-11T08:38:26.702Z,1.40
2022-08-11T08:41:03.619Z,1.55
2022-08-11T08:43:48.694Z,1.27
2022-08-11T08:46:24.414Z,1.52
2022-08-11T08:48:55.875Z,1.48
2022-08-11T08:51:54.916Z,1.90
2022-08-11T08:54:37.415Z,1.75
2022-08-11T08:57:13.661Z,2.00
2022-08-11T08:59:48.999Z,1.42
2022-08-11T09:02:34.702Z,1.40
2022-08-11T09:05:09.170Z,1.58
2022-08-11T09:07:41.508Z,1.30
2022-08-11T09:10:14.265Z,1.33
2022-08-11T09:12:48.427Z,1.30
2022-08-11T09:15:35.413Z,1.48
2022-08-11T09:18:06.701Z,1.30
2022-08-11T09:20:40.087Z,1.20
2022-08-11T09:26:30.488Z,1.42
2022-08-11T09:29:06.373Z,1.70
2022-08-11T09:31:40.378Z,1.48
2022-08-11T09:34:12.679Z,1.20
2022-08-11T09:36:56.682Z,1.00
2022-08-11T09:39:40.062Z,1.55
2022-08-11T09:42:16.639Z,1.17
2022-08-11T09:44:54.443Z,1.42
2022-08-11T09:47:27.673Z,1.20
2022-08-11T09:50:02.938Z,1.02
2022-08-11T09:52:37.725Z,1.00
2022-08-11T09:55:11.584Z,1.23
2022-08-11T09:57:55.816Z,1.15
2022-08-11T10:00:43.311Z,1.35
2022-08-11T10:03:18.593Z,1.05
2022-08-11T10:06:07.894Z,0.95
2022-08-11T10:08:41.250Z,1.25
2022-08-11T10:11:15.305Z,1.42
2022-08-11T10:14:31.533Z,0.65
2022-08-11T10:16:54.930Z,1.50
2022-08-11T10:19:26.281Z,1.33
2022-08-11T10:22:10.819Z,1.58
2022-08-11T10:24:54.346Z,1.17
2022-08-11T10:27:40.363Z,1.17
2022-08-11T10:30:28.408Z,1.70
2022-08-11T10:36:16.111Z,1.20
2022-08-11T10:38:52.870Z,1.20
2022-08-11T10:41:36.355Z,1.55
2022-08-11T10:44:14.654Z,1.30
2022-08-11T10:46:57.208Z,1.40
2022-08-11T10:49:31.582Z,1.17
2022-08-11T10:52:15.006Z,0.95
2022-08-11T10:55:00.004Z,1.50
2022-08-11T11:00:36.963Z,1.15
2022-08-11T11:03:22.903Z,1.45
2022-08-11T11:06:12.896Z,1.20
2022-08-11T11:09:03.694Z,1.13
2022-08-11T11:12:07.168Z,1.58
2022-08-11T11:14:58.154Z,1.33
2022-08-11T11:17:46.417Z,1.05
2022-08-11T11:20:36.545Z,1.17
2022-08-11T11:23:20.263Z,1.20
2022-08-11T11:26:10.273Z,1.33
2022-08-11T11:29:14.236Z,1.52
2022-08-11T11:31:56.949Z,1.33
2022-08-11T11:34:53.027Z,1.30
2022-08-11T11:37:25.510Z,1.23
2022-08-11T11:40:00.461Z,1.50
2022-08-11T11:42:32.090Z,1.27
2022-08-11T11:45:03.821Z,1.30
2022-08-11T11:47:36.022Z,1.45
2022-08-11T11:50:09.067Z,1.37
2022-08-11T11:52:41.381Z,1.60
2022-08-11T11:55:15.249Z,1.20
2022-08-11T11:57:59.567Z,1.10
2022-08-11T12:00:51.050Z,1.23
2022-08-11T12:03:23.233Z,0.82
2022-08-11T12:05:55.937Z,0.70
2022-08-11T12:08:28.477Z,0.90
2022-08-11T12:11:17.297Z,0.98
2022-08-11T12:13:50.634Z,1.45
2022-08-11T12:16:34.592Z,1.10
2022-08-11T12:19:08.963Z,1.23
2022-08-11T12:24:45.466Z,1.20
2022-08-11T12:27:28.620Z,1.02
2022-08-11T12:30:06.886Z,1.50
2022-08-11T12:32:40.435Z,1.00
2022-08-11T12:35:12.336Z,1.15
2022-08-11T12:37:46.860Z,1.90
2022-08-11T12:41:11.941Z,1.00
2022-08-11T12:43:57.145Z,1.20
2022-08-11T12:46:32.615Z,0.80
2022-08-11T12:49:19.923Z,1.27
2022-08-11T12:52:14.351Z,1.30
2022-08-11T12:54:56.596Z,0.88
2022-08-11T12:57:47.264Z,1.55
2022-08-11T13:00:34.420Z,1.10
2022-08-11T13:03:18.833Z,1.15
2022-08-11T13:05:51.594Z,1.25
2022-08-11T13:08:25.495Z,1.08
2022-08-11T13:11:10.048Z,1.00
2022-08-11T13:13:55.501Z,1.23
2022-08-11T13:16:53.824Z,1.08
2022-08-11T13:19:25.030Z,1.08
2022-08-11T13:21:56.651Z,1.13
2022-08-11T13:24:29.066Z,1.27
2022-08-11T13:27:02.668Z,1.40
2022-08-11T13:29:36.144Z,1.13
2022-08-11T13:32:11.698Z,1.10
2022-08-11T13:34:43.541Z,1.10
2022-08-11T13:37:16.331Z,1.25
2022-08-11T13:39:48.918Z,1.20
2022-08-11T13:42:20.350Z,1.15
2022-08-11T13:44:51.760Z,1.05
2022-08-11T13:47:27.048Z,1.02
2022-08-11T13:49:59.063Z,1.10
2022-08-11T13:52:30.998Z,0.98
2022-08-11T13:55:02.781Z,1.00
2022-08-11T13:58:19.235Z,1.00
2022-08-11T14:00:31.728Z,1.15
2022-08-11T14:03:07.360Z,1.08
2022-08-11T14:05:45.890Z,1.00
2022-08-11T14:08:37.095Z,0.70
2022-08-11T14:12:22.438Z,0.90
2022-08-11T14:14:19.420Z,1.50
2022-08-11T14:16:52.195Z,1.00
2022-08-11T14:19:27.978Z,1.10
2022-08-11T14:22:08.660Z,0.90
2022-08-11T14:24:42.068Z,1.27
2022-08-11T14:28:32.640Z,1.27
2022-08-11T14:30:05.693Z,1.15
2022-08-11T14:32:36.312Z,1.33
2022-08-11T14:35:30.419Z,0.95
2022-08-11T14:38:05.381Z,0.90
2022-08-11T14:40:50.463Z,1.10
2022-08-11T14:44:12.963Z,1.40
2022-08-11T14:46:36.702Z,1.00
2022-08-11T14:49:08.144Z,0.90
2022-08-11T14:51:46.900Z,1.10
2022-08-11T14:54:30.787Z,1.13
2022-08-11T14:57:03.895Z,1.20
2022-08-11T14:59:35.948Z,1.52
2022-08-11T15:02:20.444Z,0.90
2022-08-11T15:04:50.892Z,0.82
2022-08-11T15:07:30.354Z,0.90
2022-08-11T15:10:12.844Z,1.95
2022-08-11T15:12:45.293Z,1.33
2022-08-11T15:15:30.893Z,0.80
2022-08-11T15:18:04.489Z,0.95
2022-08-11T15:20:47.574Z,0.93
2022-08-11T15:23:38.945Z,1.00
2022-08-11T15:26:14.779Z,1.00
2022-08-11T15:29:01.904Z,0.90
2022-08-11T15:31:49.506Z,1.10
2022-08-11T15:34:35.663Z,1.00
2022-08-11T15:37:26.189Z,0.80
2022-08-11T15:40:28.843Z,1.40
2022-08-11T15:43:25.843Z,0.88
2022-08-11T15:46:03.674Z,0.73
2022-08-11T15:48:42.360Z,1.40
2022-08-11T15:51:14.865Z,1.23
2022-08-11T15:53:56.656Z,1.10
2022-08-11T15:56:32.507Z,1.08
2022-08-11T15:59:43.175Z,0.90
2022-08-11T16:02:24.399Z,0.60
2022-08-11T16:04:57.773Z,0.90
2022-08-11T16:07:34.259Z,0.80
2022-08-11T16:10:18.974Z,0.90
2022-08-11T16:13:18.069Z,0.90
2022-08-11T16:16:05.040Z,0.70
2022-08-11T16:18:43.486Z,0.63
2022-08-11T16:21:33.993Z,0.80
2022-08-11T16:25:57.835Z,0.80
2022-08-11T16:27:13.028Z,0.68
2022-08-11T16:29:49.778Z,0.88
2022-08-11T16:32:25.941Z,1.17
2022-08-11T16:37:57.102Z,1.02
2022-08-11T16:40:28.134Z,0.85
2022-08-11T16:43:12.050Z,0.70
2022-08-11T16:45:59.318Z,1.30
2022-08-11T16:48:40.299Z,1.25
2022-08-11T16:51:15.534Z,0.80
2022-08-11T16:54:05.251Z,1.00
2022-08-11T16:56:40.394Z,0.95
2022-08-11T16:59:15.649Z,0.82
2022-08-11T17:01:54.779Z,0.85
2022-08-11T17:04:45.823Z,1.50
2022-08-11T17:07:42.106Z,1.23
2022-08-11T17:10:51.820Z,0.90
2022-08-11T17:13:31.112Z,1.00
2022-08-11T17:16:12.834Z,1.25
2022-08-11T17:18:59.858Z,1.20
2022-08-11T17:21:33.928Z,1.23
2022-08-11T17:24:08.677Z,0.93
2022-08-11T17:26:56.346Z,1.23
2022-08-11T17:29:32.031Z,1.23
2022-08-11T17:32:20.932Z,0.98
2022-08-11T17:35:10.991Z,0.93
2022-08-11T17:37:41.901Z,1.10
2022-08-11T17:40:15.298Z,1.15
2022-08-11T17:43:00.988Z,1.33
2022-08-11T17:45:56.138Z,1.17
2022-08-11T17:48:30.894Z,1.33
2022-08-11T17:51:10.014Z,1.00
2022-08-11T17:54:10.019Z,1.75
2022-08-11T17:56:58.376Z,1.20
2022-08-11T17:59:48.849Z,1.37
2022-08-11T18:02:35.273Z,0.98
2022-08-11T18:05:12.833Z,1.02
2022-08-11T18:08:00.903Z,1.13
2022-08-11T18:10:46.224Z,1.08
2022-08-11T18:13:30.166Z,1.20
2022-08-11T18:16:13.128Z,1.23
2022-08-11T18:18:55.620Z,1.27
2022-08-11T18:21:41.564Z,0.90
2022-08-11T18:24:29.188Z,1.30
2022-08-11T18:27:14.309Z,1.05
2022-08-11T18:29:59.175Z,1.13
2022-08-11T18:32:49.942Z,1.20
2022-08-11T18:35:33.897Z,1.05
2022-08-11T18:38:18.565Z,1.70
2022-08-11T18:41:05.869Z,1.00
2022-08-11T18:43:50.648Z,0.90
2022-08-11T18:46:33.545Z,1.20
2022-08-11T18:49:22.762Z,1.42
2022-08-11T18:52:09.084Z,1.50
2022-08-11T18:54:57.921Z,3.92
2022-08-11T18:57:49.548Z,1.25
2022-08-11T19:00:41.179Z,1.42
2022-08-11T19:03:26.801Z,1.60
2022-08-11T19:06:39.104Z,1.27
2022-08-11T19:09:17.156Z,1.30
2022-08-11T19:12:01.739Z,1.15
2022-08-11T19:14:49.180Z,1.10
2022-08-11T19:17:44.021Z,1.52
2022-08-11T19:20:32.155Z,1.33
2022-08-11T19:23:17.158Z,1.55
2022-08-11T19:26:02.222Z,1.70
2022-08-11T19:28:45.966Z,1.58
2022-08-11T19:31:31.901Z,1.50
2022-08-11T19:34:15.524Z,1.20
2022-08-11T19:39:45.529Z,1.10
2022-08-11T19:42:30.277Z,1.48
2022-08-11T19:45:14.422Z,1.55
2022-08-11T19:48:21.069Z,2.05
2022-08-11T19:51:06.211Z,1.05
2022-08-11T19:53:50.186Z,1.40
2022-08-11T19:56:33.796Z,1.15
2022-08-11T20:02:13.035Z,1.20
2022-08-11T20:05:03.057Z,1.33
2022-08-11T20:07:47.156Z,1.10
2022-08-11T20:10:32.613Z,1.10
2022-08-11T20:13:21.483Z,1.13
2022-08-11T20:16:07.197Z,1.08
2022-08-11T20:18:51.317Z,1.02
2022-08-11T20:21:38.238Z,1.20
2022-08-11T20:24:21.963Z,1.10
2022-08-11T20:29:51.090Z,0.93
2022-08-11T20:32:34.065Z,1.15
2022-08-11T20:35:18.207Z,1.25
2022-08-11T20:38:09.381Z,1.13
2022-08-11T20:40:55.480Z,1.17
2022-08-11T20:46:42.568Z,0.93
2022-08-11T20:49:27.084Z,1.15
2022-08-11T20:52:25.056Z,1.63
2022-08-11T20:55:19.175Z,1.40
2022-08-11T20:58:17.658Z,1.25
2022-08-11T21:01:04.901Z,0.82
2022-08-11T21:03:59.735Z,0.90
2022-08-11T21:06:45.506Z,1.15
2022-08-11T21:09:58.806Z,0.88
2022-08-11T21:12:35.439Z,1.20
2022-08-11T21:15:47.197Z,1.15
2022-08-11T21:18:29.731Z,1.08
2022-08-11T21:21:16.488Z,0.95
2022-08-11T21:24:00.491Z,0.95
2022-08-11T21:26:46.835Z,1.27
2022-08-11T21:29:34.694Z,1.23
2022-08-11T21:32:17.544Z,1.27
2022-08-11T21:35:02.447Z,0.90
2022-08-11T21:37:46.492Z,1.13
2022-08-11T21:40:35.080Z,0.88
2022-08-11T21:43:20.151Z,1.40
2022-08-11T21:46:07.113Z,1.42
2022-08-11T21:48:51.746Z,1.08
2022-08-11T21:51:34.858Z,1.00
2022-08-11T21:54:18.752Z,1.13
2022-08-11T21:57:02.803Z,0.88
2022-08-11T21:59:57.319Z,1.08
2022-08-11T22:05:41.214Z,0.80
2022-08-11T22:08:24.806Z,1.30
2022-08-11T22:14:05.704Z,1.00
2022-08-11T22:16:51.016Z,1.40
2022-08-11T22:19:37.554Z,0.93
2022-08-11T22:22:21.297Z,1.30
2022-08-11T22:25:16.642Z,1.08
2022-08-11T22:28:01.259Z,1.02
2022-08-11T22:30:44.881Z,0.95
2022-08-11T22:36:15.577Z,0.95
2022-08-11T22:39:00.701Z,2.20
2022-08-11T22:41:44.271Z,1.50
2022-08-11T22:44:27.607Z,1.48
2022-08-11T22:47:15.718Z,1.42
2022-08-11T22:50:04.878Z,1.02
2022-08-11T22:52:52.300Z,1.15
2022-08-11T22:55:35.819Z,1.42
2022-08-11T22:58:19.670Z,0.85
2022-08-11T23:01:03.457Z,1.80
2022-08-11T23:03:47.360Z,1.20
2022-08-11T23:06:31.099Z,1.50
2022-08-11T23:12:06.530Z,1.20
2022-08-11T23:14:52.488Z,1.35
2022-08-11T23:17:36.010Z,1.20
2022-08-11T23:20:30.650Z,1.65
2022-08-11T23:23:17.066Z,1.30
2022-08-11T23:26:07.092Z,1.02
2022-08-11T23:28:50.185Z,1.40
2022-08-11T23:31:43.662Z,1.10
2022-08-11T23:34:41.640Z,1.20
2022-08-11T23:37:38.924Z,1.40
2022-08-11T23:40:23.231Z,1.30
2022-08-11T23:43:08.707Z,1.42
2022-08-11T23:45:53.296Z,1.23
2022-08-11T23:51:22.359Z,1.50
2022-08-11T23:54:08.012Z,1.40
2022-08-11T23:56:51.425Z,1.48
2022-08-11T23:59:37.425Z,1.45
